Time;durP1;ratioP1;P1;durP2;ratioP2;P2;SDS_P1;SDS_P2;PMS_P1;PMS_P2;Temp;Humidity;BMP_temperature;BMP_pressure;BME280_temperature;BME280_humidity;BME280_pressure;Samples;Min_cycle;Max_cycle;Signal;HPM_P1;HPM_P2
2022/08/14 00:01:45;;;;;;;;;;;;;;;18.40;93.72;98914.50;5014101;28;1041;-65
2022/08/14 00:04:12;;;;;;;;;;;;;;;18.34;93.91;98922.00;5012309;28;1192;-65
2022/08/14 00:06:39;;;;;;;;;;;;;;;18.26;94.02;98920.81;5036152;28;1269;-65
2022/08/14 00:09:05;;;;;;;;;;;;;;;18.24;94.28;98920.50;5053202;28;883;-66
2022/08/14 00:11:33;;;;;;;;;;;;;;;18.23;94.47;98916.19;5053129;28;1938;-64
2022/08/14 00:14:01;;;;;;;;;;;;;;;18.20;94.46;98908.72;5053149;28;890;-64
2022/08/14 00:16:27;;;;;;;;;;;;;;;18.26;94.64;98912.41;5035117;28;1326;-65
2022/08/14 00:18:54;;;;;;;;;;;;;;;18.32;94.31;98902.13;5052988;28;915;-65
2022/08/14 00:21:21;;;;;;;;;;;;;;;18.43;93.95;98910.72;5051913;28;824;-65
2022/08/14 00:23:48;;;;;;;;;;;;;;;18.66;92.86;98905.59;5052980;28;895;-65
2022/08/14 00:26:15;;;;;;;;;;;;;;;18.86;91.66;98896.56;5052889;28;872;-65
2022/08/14 00:28:42;;;;;;;;;;;;;;;19.00;90.66;98897.84;5052852;28;872;-64
2022/08/14 00:31:10;;;;;;;;;;;;;;;19.06;89.98;98899.47;5052693;28;1943;-64
2022/08/14 00:33:37;;;;;;;;;;;;;;;19.06;89.32;98907.88;5034857;28;1252;-64
2022/08/14 00:36:04;;;;;;;;;;;;;;;19.05;88.84;98899.94;5052645;28;836;-64
2022/08/14 00:38:31;;;;;;;;;;;;;;;19.01;88.20;98897.38;5052718;28;883;-64
2022/08/14 00:40:58;;;;;;;;;;;;;;;18.89;88.37;98901.22;5052556;28;843;-65
2022/08/14 00:43:26;;;;;;;;;;;;;;;18.75;88.59;98895.09;5052549;28;880;-65
2022/08/14 00:45:53;;;;;;;;;;;;;;;18.76;88.36;98895.88;5052407;28;828;-65
2022/08/14 00:48:20;;;;;;;;;;;;;;;18.80;87.81;98887.28;5052380;28;824;-64
2022/08/14 00:50:47;;;;;;;;;;;;;;;18.70;87.61;98884.56;5052406;28;1945;-65
2022/08/14 00:53:15;;;;;;;;;;;;;;;18.54;88.00;98877.41;5052375;28;906;-64
2022/08/14 00:55:42;;;;;;;;;;;;;;;18.40;88.34;98886.53;5052375;28;946;-64
2022/08/14 01:00:54;;;;;;;;;;;;;;;18.09;89.38;98881.31;5052740;28;1037;-65
2022/08/14 01:03:21;;;;;;;;;;;;;;;18.04;89.57;98877.16;5052180;28;816;-65
2022/08/14 01:05:50;;;;;;;;;;;;;;;18.00;89.69;98873.75;5051949;28;1277;-65
2022/08/14 01:08:22;;;;;;;;;;;;;;;17.93;90.10;98874.88;5034219;28;1197;-64
2022/08/14 01:10:52;;;;;;;;;;;;;;;17.89;89.91;98870.72;5052054;28;1917;-65
2022/08/14 01:13:25;;;;;;;;;;;;;;;17.81;90.30;98878.66;5052042;28;895;-64
2022/08/14 01:15:55;;;;;;;;;;;;;;;17.77;90.88;98869.66;5051851;28;895;-64
2022/08/14 01:21:10;;;;;;;;;;;;;;;17.66;90.84;98869.44;5052231;28;682;-64
2022/08/14 01:23:39;;;;;;;;;;;;;;;17.62;91.20;98866.03;5051853;28;898;-64
2022/08/14 01:26:06;;;;;;;;;;;;;;;17.59;91.21;98878.16;5051795;28;867;-64
2022/08/14 01:28:37;;;;;;;;;;;;;;;17.48;91.29;98876.66;5051784;28;820;-64
2022/08/14 01:31:11;;;;;;;;;;;;;;;17.41;91.75;98877.00;5051878;28;1941;-64
2022/08/14 01:33:39;;;;;;;;;;;;;;;17.32;91.83;98877.03;5051682;28;856;-64
2022/08/14 01:36:07;;;;;;;;;;;;;;;17.27;92.51;98875.66;5033748;28;1477;-64
2022/08/14 01:38:34;;;;;;;;;;;;;;;17.24;92.44;98875.81;5051624;28;875;-64
2022/08/14 01:41:01;;;;;;;;;;;;;;;17.21;92.84;98871.19;5033734;28;1216;-64
2022/08/14 01:43:29;;;;;;;;;;;;;;;17.20;92.81;98878.78;5051541;28;859;-65
2022/08/14 01:46:00;;;;;;;;;;;;;;;17.12;92.76;98869.19;5033632;28;1189;-64
2022/08/14 01:48:32;;;;;;;;;;;;;;;17.05;93.17;98873.09;5051460;28;868;-64
2022/08/14 01:51:02;;;;;;;;;;;;;;;17.05;93.44;98872.31;5051422;28;1945;-64
2022/08/14 01:53:30;;;;;;;;;;;;;;;17.05;93.68;98877.91;5051900;28;1175;-65
2022/08/14 01:56:05;;;;;;;;;;;;;;;17.06;93.92;98871.06;5033516;28;1216;-64
2022/08/14 01:58:32;;;;;;;;;;;;;;;17.08;94.07;98868.56;5051350;28;808;-64
2022/08/14 02:00:59;;;;;;;;;;;;;;;17.06;94.24;98868.28;5051474;28;999;-64
2022/08/14 02:03:30;;;;;;;;;;;;;;;17.04;94.21;98867.97;5051321;28;875;-64
2022/08/14 02:05:58;;;;;;;;;;;;;;;17.02;94.43;98862.06;5051144;28;1277;-64
2022/08/14 02:08:29;;;;;;;;;;;;;;;17.02;94.73;98874.00;5051299;28;820;-64
2022/08/14 02:13:45;;;;;;;;;;;;;;;16.98;94.89;98867.03;5051183;28;1265;-65
2022/08/14 02:16:12;;;;;;;;;;;;;;;16.98;94.67;98872.63;5051072;28;821;-64
2022/08/14 02:18:40;;;;;;;;;;;;;;;16.98;94.71;98869.84;5051110;28;812;-64
2022/08/14 02:21:07;;;;;;;;;;;;;;;16.96;94.67;98866.75;5033392;28;1417;-64
2022/08/14 02:23:34;;;;;;;;;;;;;;;16.94;94.73;98864.41;5051646;28;831;-65
2022/08/14 02:26:03;;;;;;;;;;;;;;;16.92;94.88;98856.53;5051482;28;876;-65
2022/08/14 02:28:30;;;;;;;;;;;;;;;17.00;94.83;98858.97;5051055;28;1244;-64
2022/08/14 02:31:01;;;;;;;;;;;;;;;17.03;94.53;98860.84;5051184;28;1949;-64
2022/08/14 02:33:28;;;;;;;;;;;;;;;16.99;94.52;98855.44;5051032;28;836;-65
2022/08/14 02:35:55;;;;;;;;;;;;;;;16.97;94.54;98857.13;5051054;28;911;-64
2022/08/14 02:38:22;;;;;;;;;;;;;;;17.00;94.65;98858.97;5050980;28;831;-64
2022/08/14 02:40:50;;;;;;;;;;;;;;;17.07;94.43;98864.22;5033156;28;1330;-64
2022/08/14 02:43:16;;;;;;;;;;;;;;;17.14;94.36;98852.75;5051596;28;900;-64
2022/08/14 02:45:44;;;;;;;;;;;;;;;17.24;93.81;98850.69;5054739;28;891;-64
2022/08/14 02:48:12;;;;;;;;;;;;;;;17.38;93.53;98854.81;5036906;28;1287;-64
2022/08/14 02:50:41;;;;;;;;;;;;;;;17.49;92.97;98846.69;5054644;28;1953;-64
2022/08/14 02:53:08;;;;;;;;;;;;;;;17.55;92.48;98848.38;5054726;28;867;-64
2022/08/14 02:55:35;;;;;;;;;;;;;;;17.54;92.29;98851.66;5054588;28;859;-64
2022/08/14 02:58:04;;;;;;;;;;;;;;;17.48;92.43;98850.75;5054589;28;824;-64
2022/08/14 03:00:32;;;;;;;;;;;;;;;17.45;92.52;98860.06;5054557;28;966;-64
2022/08/14 03:03:00;;;;;;;;;;;;;;;17.39;92.33;98859.94;5054549;28;871;-64
2022/08/14 03:05:29;;;;;;;;;;;;;;;17.30;92.42;98863.56;5036348;28;1430;-64
2022/08/14 03:08:06;;;;;;;;;;;;;;;17.24;92.92;98868.22;5036532;28;1204;-64
2022/08/14 03:10:33;;;;;;;;;;;;;;;17.28;92.63;98866.03;5054318;28;1914;-64
2022/08/14 03:13:03;;;;;;;;;;;;;;;17.29;92.51;98867.56;5054167;28;887;-64
2022/08/14 03:15:32;;;;;;;;;;;;;;;17.25;92.68;98869.75;5054517;28;836;-65
2022/08/14 03:17:59;;;;;;;;;;;;;;;17.28;92.84;98871.63;5036397;28;1244;-64
2022/08/14 03:20:29;;;;;;;;;;;;;;;17.35;92.78;98873.31;5054193;28;875;-64
2022/08/14 03:22:58;;;;;;;;;;;;;;;17.43;92.49;98870.94;5054221;28;848;-64
2022/08/14 03:25:25;;;;;;;;;;;;;;;17.47;92.38;98863.91;5054053;28;828;-64
2022/08/14 03:27:51;;;;;;;;;;;;;;;17.47;92.22;98865.94;5054039;28;879;-64
2022/08/14 03:30:18;;;;;;;;;;;;;;;17.48;92.13;98859.91;5054030;28;914;-64
2022/08/14 03:32:45;;;;;;;;;;;;;;;17.47;92.37;98857.56;5053826;28;1945;-64
2022/08/14 03:35:12;;;;;;;;;;;;;;;17.58;92.39;98843.88;5053907;28;800;-65
2022/08/14 03:37:41;;;;;;;;;;;;;;;17.75;91.95;98852.59;5053809;28;887;-64
2022/08/14 03:40:10;;;;;;;;;;;;;;;17.94;91.40;98850.50;5035974;28;930;-64
2022/08/14 03:42:38;;;;;;;;;;;;;;;18.14;90.54;98838.72;5053684;28;832;-64
2022/08/14 03:45:12;;;;;;;;;;;;;;;18.64;88.05;98846.53;5035871;28;1255;-64
2022/08/14 03:47:45;;;;;;;;;;;;;;;19.52;82.98;98831.72;5053659;28;792;-64
2022/08/14 03:50:38;;;;;;;;;;;;;;;20.14;79.62;98837.38;5053603;28;828;-63
2022/08/14 03:53:05;;;;;;;;;;;;;;;20.52;77.69;98838.31;5035731;28;899;-64
2022/08/14 03:55:33;;;;;;;;;;;;;;;20.74;76.43;98843.38;5053226;28;872;-63
2022/08/14 03:57:59;;;;;;;;;;;;;;;20.99;74.36;98842.63;5053499;28;888;-63
2022/08/14 04:00:28;;;;;;;;;;;;;;;21.07;73.38;98845.75;5053687;28;1028;-63
2022/08/14 04:02:54;;;;;;;;;;;;;;;20.92;73.80;98845.09;5035522;28;1306;-63
2022/08/14 04:05:21;;;;;;;;;;;;;;;20.67;74.54;98846.66;5052326;28;1372;-63
2022/08/14 04:07:48;;;;;;;;;;;;;;;20.52;74.95;98839.06;5013628;28;836;-63
2022/08/14 04:10:15;;;;;;;;;;;;;;;20.49;75.42;98839.31;5013721;28;872;-63
2022/08/14 04:12:42;;;;;;;;;;;;;;;20.50;75.50;98835.97;5013349;28;1910;-63
2022/08/14 04:15:09;;;;;;;;;;;;;;;20.54;75.05;98828.13;5013488;28;875;-63
2022/08/14 04:17:36;;;;;;;;;;;;;;;20.60;74.31;98826.16;5013385;28;871;-63
2022/08/14 04:20:06;;;;;;;;;;;;;;;20.82;73.42;98832.50;5013411;28;880;-63
2022/08/14 04:22:33;;;;;;;;;;;;;;;21.06;72.37;98826.56;5013244;28;864;-62
2022/08/14 04:25:01;;;;;;;;;;;;;;;21.22;71.73;98828.75;5013250;28;856;-62
2022/08/14 04:27:28;;;;;;;;;;;;;;;21.30;71.93;98826.25;5013847;28;821;-62
2022/08/14 04:29:56;;;;;;;;;;;;;;;21.47;71.02;98817.97;5013547;28;895;-63
2022/08/14 04:32:25;;;;;;;;;;;;;;;21.84;69.33;98820.72;5013508;28;1886;-63
2022/08/14 04:34:52;;;;;;;;;;;;;;;22.36;66.97;98819.66;5013227;28;872;-63
2022/08/14 04:45:57;;;;;;;;;;;;;;;23.16;63.63;98824.91;5013235;28;674;-63
2022/08/14 04:51:35;;;;;;;;;;;;;;;23.37;62.66;98822.56;5012940;28;1889;-63
2022/08/14 04:54:01;;;;;;;;;;;;;;;23.43;61.98;98823.34;5012752;28;883;-62
2022/08/14 04:56:28;;;;;;;;;;;;;;;23.53;61.96;98828.69;5012720;28;864;-63
2022/08/14 05:02:02;;;;;;;;;;;;;;;23.72;61.01;98831.72;5012185;28;1235;-63
2022/08/14 05:04:31;;;;;;;;;;;;;;;23.65;61.03;98825.34;5012546;28;824;-62
2022/08/14 05:07:01;;;;;;;;;;;;;;;23.52;61.83;98815.91;5038999;28;1234;-62
2022/08/14 05:09:28;;;;;;;;;;;;;;;23.46;62.18;98820.78;5052514;28;871;-63
2022/08/14 05:11:56;;;;;;;;;;;;;;;23.42;62.36;98816.16;5034436;28;1922;-62
2022/08/14 05:14:26;;;;;;;;;;;;;;;23.42;62.12;98809.75;5052393;28;840;-63
2022/08/14 05:17:04;;;;;;;;;;;;;;;23.52;61.97;98813.06;5052062;28;856;-62
2022/08/14 05:19:33;;;;;;;;;;;;;;;23.87;61.05;98818.13;5034063;28;1195;-62
2022/08/14 05:34:10;;;;;;;;;;;;;;;24.83;58.19;98789.38;5051960;28;790;-62
2022/08/14 05:36:41;;;;;;;;;;;;;;;24.92;58.18;98786.22;5033884;28;855;-63
2022/08/14 05:39:08;;;;;;;;;;;;;;;25.08;58.08;98792.25;5051577;28;836;-62
2022/08/14 05:41:35;;;;;;;;;;;;;;;25.28;57.39;98789.00;5033619;28;1188;-63
2022/08/14 05:44:01;;;;;;;;;;;;;;;25.44;57.06;98788.06;5051489;28;841;-62
2022/08/14 05:46:28;;;;;;;;;;;;;;;25.62;56.22;98786.56;5051667;28;899;-63
2022/08/14 06:01:26;;;;;;;;;;;;;;;26.53;54.19;98779.78;5051702;28;906;-61
2022/08/14 06:04:01;;;;;;;;;;;;;;;26.67;53.66;98781.38;5051274;28;938;-62
2022/08/14 06:06:27;;;;;;;;;;;;;;;26.76;53.16;98772.50;5033741;28;1218;-63
2022/08/14 06:08:54;;;;;;;;;;;;;;;26.94;53.05;98770.91;5011628;28;832;-62
2022/08/14 06:11:20;;;;;;;;;;;;;;;27.15;52.09;98775.97;5011475;28;1977;-63
2022/08/14 06:13:47;;;;;;;;;;;;;;;27.26;51.24;98775.78;5011637;28;889;-63
2022/08/14 06:16:16;;;;;;;;;;;;;;;27.54;51.07;98775.25;5010335;28;1212;-62
2022/08/14 06:18:44;;;;;;;;;;;;;;;27.94;50.40;98772.44;5012989;28;805;-62
2022/08/14 06:21:12;;;;;;;;;;;;;;;28.28;49.13;98783.81;5015579;28;903;-62
2022/08/14 06:23:39;;;;;;;;;;;;;;;28.60;48.77;98788.56;5015588;28;907;-61
2022/08/14 06:26:12;;;;;;;;;;;;;;;28.75;48.06;98785.09;5015433;28;876;-61
2022/08/14 06:43:57;;;;;;;;;;;;;;;30.07;44.70;98782.66;5015116;28;1120;-61
2022/08/14 06:50:00;;;;;;;;;;;;;;;30.43;44.54;98781.13;5015140;28;623;-61
2022/08/14 06:52:27;;;;;;;;;;;;;;;30.23;44.95;98788.41;5013728;28;1960;-61
2022/08/14 06:54:53;;;;;;;;;;;;;;;30.05;45.22;98788.16;5013785;28;1189;-62
2022/08/14 07:00:23;;;;;;;;;;;;;;;30.34;45.25;98782.38;5014989;28;978;-62
2022/08/14 07:15:49;;;;;;;;;;;;;;;31.13;43.29;98786.34;5020404;28;1409;-62
2022/08/14 07:18:21;;;;;;;;;;;;;;;31.16;42.77;98781.59;5014527;28;935;-62
2022/08/14 07:21:04;;;;;;;;;;;;;;;30.80;44.47;98771.09;5014587;28;801;-62
2022/08/14 07:23:32;;;;;;;;;;;;;;;30.92;44.47;98782.94;5014815;28;840;-62
2022/08/14 07:26:00;;;;;;;;;;;;;;;31.04;43.95;98784.06;5014941;28;812;-62
2022/08/14 07:28:27;;;;;;;;;;;;;;;30.53;44.92;98780.00;5014517;28;902;-62
2022/08/14 07:30:56;;;;;;;;;;;;;;;30.07;46.03;98791.22;5013950;28;1982;-62
2022/08/14 07:33:24;;;;;;;;;;;;;;;31.54;43.41;98789.41;5014237;28;1115;-62
2022/08/14 07:38:57;;;;;;;;;;;;;;;34.72;37.45;98780.00;5014074;28;1190;-62
2022/08/14 07:41:30;;;;;;;;;;;;;;;35.76;35.57;98787.28;5014293;28;864;-63
2022/08/14 07:43:57;;;;;;;;;;;;;;;36.34;34.45;98785.75;5014081;28;897;-63
2022/08/14 07:46:24;;;;;;;;;;;;;;;37.37;32.44;98787.94;5014076;28;816;-62
2022/08/14 07:48:49;;;;;;;;;;;;;;;37.73;31.03;98795.47;5014063;28;816;-62
2022/08/14 07:54:21;;;;;;;;;;;;;;;37.68;30.90;98798.69;5013983;28;1031;-62
2022/08/14 07:56:48;;;;;;;;;;;;;;;37.23;31.99;98801.38;5013950;28;880;-62
2022/08/14 07:59:16;;;;;;;;;;;;;;;35.95;33.75;98803.00;5012640;28;1217;-62
2022/08/14 08:01:43;;;;;;;;;;;;;;;35.08;34.98;98803.56;5012608;28;1208;-62
2022/08/14 08:04:11;;;;;;;;;;;;;;;35.78;34.13;98790.31;5013752;28;859;-62
2022/08/14 08:06:37;;;;;;;;;;;;;;;36.51;32.70;98787.66;5013731;28;836;-62
2022/08/14 08:12:07;;;;;;;;;;;;;;;36.41;32.68;98775.44;5013456;28;1949;-62
2022/08/14 08:14:34;;;;;;;;;;;;;;;37.27;31.65;98778.59;5017436;28;1380;-62
2022/08/14 08:17:02;;;;;;;;;;;;;;;37.44;31.16;98771.81;5013399;28;833;-63
2022/08/14 08:19:30;;;;;;;;;;;;;;;36.02;33.39;98769.69;5013414;28;907;-63
2022/08/14 08:22:02;;;;;;;;;;;;;;;36.66;31.96;98770.09;5013362;28;832;-63
2022/08/14 08:24:30;;;;;;;;;;;;;;;37.39;31.10;98773.69;5013424;28;942;-63
2022/08/14 08:26:58;;;;;;;;;;;;;;;37.51;30.67;98763.00;5013306;28;824;-63
2022/08/14 08:29:25;;;;;;;;;;;;;;;36.56;31.53;98769.34;5013282;28;808;-63
2022/08/14 08:31:53;;;;;;;;;;;;;;;36.41;32.14;98755.31;5013158;28;1976;-63
2022/08/14 08:34:20;;;;;;;;;;;;;;;35.91;33.30;98756.69;5011897;28;820;-62
2022/08/14 08:36:47;;;;;;;;;;;;;;;33.98;35.71;98764.72;5013170;28;856;-64
2022/08/14 08:39:15;;;;;;;;;;;;;;;32.55;38.44;98765.59;5012896;28;832;-65
2022/08/14 08:41:46;;;;;;;;;;;;;;;31.57;40.70;98756.06;5010886;28;1256;-64
2022/08/14 08:44:13;;;;;;;;;;;;;;;31.02;41.23;98752.47;5012932;28;841;-65
2022/08/14 08:46:44;;;;;;;;;;;;;;;30.77;42.19;98752.28;5012899;28;895;-64
2022/08/14 08:49:10;;;;;;;;;;;;;;;30.86;42.23;98748.09;5012881;28;891;-65
2022/08/14 08:51:38;;;;;;;;;;;;;;;30.87;42.56;98741.06;5012813;28;1946;-65
2022/08/14 08:54:06;;;;;;;;;;;;;;;30.98;42.49;98740.69;5012729;28;917;-65
2022/08/14 08:56:33;;;;;;;;;;;;;;;31.24;42.86;98736.69;5012889;28;812;-65
2022/08/14 08:59:00;;;;;;;;;;;;;;;32.27;41.22;98728.78;5012673;28;891;-64
2022/08/14 09:01:29;;;;;;;;;;;;;;;34.19;38.06;98724.16;5012931;28;1024;-64
2022/08/14 09:04:06;;;;;;;;;;;;;;;35.82;34.95;98720.84;5011448;28;1280;-64
2022/08/14 09:06:43;;;;;;;;;;;;;;;36.75;33.19;98722.50;5012582;28;808;-64
2022/08/14 09:09:25;;;;;;;;;;;;;;;37.32;32.45;98714.13;5012456;28;824;-64
2022/08/14 09:11:56;;;;;;;;;;;;;;;37.51;31.36;98719.00;5012415;28;1890;-64
2022/08/14 09:14:24;;;;;;;;;;;;;;;36.90;31.70;98716.34;5013239;28;1314;-64
2022/08/14 09:16:51;;;;;;;;;;;;;;;37.17;32.00;98718.94;5051968;28;891;-64
2022/08/14 09:19:18;;;;;;;;;;;;;;;37.67;31.14;98716.47;5051985;28;828;-64
2022/08/14 09:21:45;;;;;;;;;;;;;;;37.91;30.65;98702.91;5051863;28;1128;-64
2022/08/14 09:24:12;;;;;;;;;;;;;;;36.82;31.92;98703.50;5051844;28;900;-64
2022/08/14 09:26:40;;;;;;;;;;;;;;;35.72;33.22;98697.13;5051902;28;851;-64
2022/08/14 09:29:08;;;;;;;;;;;;;;;35.57;33.37;98695.28;5051833;28;852;-65
2022/08/14 10:00:34;;;;;;;;;;;;;;;28.16;48.79;98696.56;6203549;22;1677;-61
2022/08/14 10:03:01;;;;;;;;;;;;;;;28.41;47.91;98699.88;5010802;28;1114;-62
2022/08/14 10:05:30;;;;;;;;;;;;;;;28.75;46.96;98699.81;5011892;28;947;-62
2022/08/14 10:07:57;;;;;;;;;;;;;;;29.19;46.45;98704.91;5012016;28;812;-62
2022/08/14 10:10:29;;;;;;;;;;;;;;;29.43;46.11;98695.19;5011923;28;914;-62
2022/08/14 10:12:56;;;;;;;;;;;;;;;29.61;46.26;98693.38;5011514;28;1906;-62
2022/08/14 10:15:24;;;;;;;;;;;;;;;29.66;46.57;98684.69;5011717;28;831;-62
2022/08/14 10:18:12;;;;;;;;;;;;;;;29.38;47.84;98691.19;5011544;28;864;-63
2022/08/14 10:20:42;;;;;;;;;;;;;;;28.16;52.96;98690.88;5011419;28;1663;-63
2022/08/14 10:23:17;;;;;;;;;;;;;;;26.79;57.26;98694.13;5011594;28;918;-62
2022/08/14 10:25:45;;;;;;;;;;;;;;;26.48;61.05;98697.19;4993877;28;1205;-63
2022/08/14 10:28:15;;;;;;;;;;;;;;;27.37;59.16;98690.47;5011580;28;915;-62
2022/08/14 10:30:46;;;;;;;;;;;;;;;28.22;57.08;98686.59;5011365;28;1945;-63
2022/08/14 10:33:31;;;;;;;;;;;;;;;28.66;54.88;98681.19;5011264;28;1392;-63
2022/08/14 10:35:59;;;;;;;;;;;;;;;28.96;53.92;98679.91;5011531;28;828;-62
2022/08/14 10:38:34;;;;;;;;;;;;;;;29.99;52.33;98685.00;5011319;28;872;-62
2022/08/14 10:41:14;;;;;;;;;;;;;;;31.06;45.74;98692.94;5011452;28;903;-63
2022/08/14 10:43:42;;;;;;;;;;;;;;;31.80;43.15;98693.91;5011407;28;841;-63
2022/08/14 10:46:13;;;;;;;;;;;;;;;32.16;41.62;98701.41;5011298;28;982;-63
2022/08/14 10:48:40;;;;;;;;;;;;;;;32.58;41.42;98697.88;5011330;28;839;-63
2022/08/14 10:51:07;;;;;;;;;;;;;;;33.23;39.25;98687.63;5011337;28;1939;-62
2022/08/14 10:53:35;;;;;;;;;;;;;;;33.31;38.35;98679.72;5011469;28;946;-62
2022/08/14 10:56:05;;;;;;;;;;;;;;;32.82;39.59;98695.59;5011092;28;955;-63
2022/08/14 10:58:32;;;;;;;;;;;;;;;31.53;42.44;98697.25;5011322;28;868;-63
2022/08/14 11:01:06;;;;;;;;;;;;;;;30.74;44.47;98684.97;5007739;28;1327;-63
2022/08/14 11:03:42;;;;;;;;;;;;;;;30.36;44.94;98690.63;4991717;28;1012;-64
2022/08/14 11:06:19;;;;;;;;;;;;;;;29.73;45.86;98691.00;4995031;28;899;-63
2022/08/14 11:08:47;;;;;;;;;;;;;;;29.29;46.52;98689.59;4995279;28;860;-64
2022/08/14 11:11:14;;;;;;;;;;;;;;;28.75;47.16;98699.81;4995093;28;1957;-63
2022/08/14 11:13:45;;;;;;;;;;;;;;;28.39;47.26;98688.28;4993935;28;1600;-63
2022/08/14 11:16:14;;;;;;;;;;;;;;;28.21;47.81;98702.13;4995409;28;896;-64
2022/08/14 11:18:45;;;;;;;;;;;;;;;27.52;48.40;98697.66;4995005;28;907;-63
2022/08/14 11:21:17;;;;;;;;;;;;;;;26.99;50.44;98693.50;4995221;28;939;-63
2022/08/14 11:23:45;;;;;;;;;;;;;;;26.61;51.69;98682.31;4994820;28;978;-64
2022/08/14 11:26:13;;;;;;;;;;;;;;;25.67;54.63;98669.00;4994934;28;849;-64
2022/08/14 11:28:42;;;;;;;;;;;;;;;24.53;58.94;98663.00;4994842;28;875;-63
2022/08/14 11:31:09;;;;;;;;;;;;;;;23.71;61.52;98663.78;4993262;28;1879;-63
2022/08/14 11:33:37;;;;;;;;;;;;;;;23.46;62.76;98658.00;4994782;28;903;-63
2022/08/14 11:36:06;;;;;;;;;;;;;;;23.43;62.24;98654.16;4994733;28;879;-63
2022/08/14 11:38:37;;;;;;;;;;;;;;;23.60;61.63;98644.88;4993313;28;1244;-63
2022/08/14 11:41:04;;;;;;;;;;;;;;;24.56;58.75;98639.38;4994573;28;817;-63
2022/08/14 11:43:31;;;;;;;;;;;;;;;26.02;52.96;98624.78;4994618;28;824;-63
2022/08/14 11:46:00;;;;;;;;;;;;;;;27.35;47.53;98621.41;4994341;28;908;-63
2022/08/14 11:48:28;;;;;;;;;;;;;;;28.74;44.13;98603.72;4994560;28;887;-62
2022/08/14 11:50:56;;;;;;;;;;;;;;;29.86;41.54;98611.13;4994276;28;1949;-62
2022/08/14 11:53:29;;;;;;;;;;;;;;;30.43;39.86;98618.63;4992916;28;1273;-62
2022/08/14 11:56:05;;;;;;;;;;;;;;;30.74;38.17;98614.41;4994288;28;902;-62
2022/08/14 11:58:33;;;;;;;;;;;;;;;31.44;36.77;98617.16;4994566;28;1001;-62
2022/08/14 12:01:01;;;;;;;;;;;;;;;31.87;35.45;98623.81;5000809;28;1238;-63
2022/08/14 12:03:38;;;;;;;;;;;;;;;32.17;35.24;98622.13;5033621;28;852;-62
2022/08/14 12:06:06;;;;;;;;;;;;;;;32.10;34.95;98626.56;5016013;28;811;-63
2022/08/14 12:08:34;;;;;;;;;;;;;;;31.70;36.31;98624.47;5033525;28;1038;-63
2022/08/14 12:11:01;;;;;;;;;;;;;;;31.07;36.74;98617.44;5033208;28;2267;-63
2022/08/14 12:13:32;;;;;;;;;;;;;;;31.70;36.80;98624.47;5015645;28;1535;-63
2022/08/14 12:16:07;;;;;;;;;;;;;;;32.92;35.39;98607.75;5033267;28;891;-63
2022/08/14 12:18:39;;;;;;;;;;;;;;;33.38;34.91;98601.56;5033615;28;848;-64
2022/08/14 12:21:12;;;;;;;;;;;;;;;33.42;35.38;98589.69;5033231;28;877;-63
2022/08/14 12:23:39;;;;;;;;;;;;;;;33.73;35.19;98584.31;5033222;28;816;-63
2022/08/14 12:26:08;;;;;;;;;;;;;;;33.77;35.01;98581.78;5015592;28;843;-63
2022/08/14 12:28:35;;;;;;;;;;;;;;;32.74;36.50;98584.88;5032933;28;890;-63
2022/08/14 12:31:12;;;;;;;;;;;;;;;31.99;37.12;98590.63;5032972;28;1918;-63
2022/08/14 12:33:40;;;;;;;;;;;;;;;31.25;38.56;98604.06;5032963;28;848;-64
2022/08/14 12:36:22;;;;;;;;;;;;;;;30.90;39.62;98618.06;5032989;28;950;-63
2022/08/14 12:38:54;;;;;;;;;;;;;;;30.48;40.71;98621.28;5032666;28;892;-64
2022/08/14 12:41:21;;;;;;;;;;;;;;;30.18;41.51;98621.25;5032650;28;934;-64
2022/08/14 12:43:50;;;;;;;;;;;;;;;30.03;42.08;98617.03;5032783;28;887;-63
2022/08/14 12:46:24;;;;;;;;;;;;;;;29.75;43.24;98620.78;5014985;28;907;-63
2022/08/14 12:48:50;;;;;;;;;;;;;;;29.59;43.41;98610.63;5032605;28;996;-64
2022/08/14 12:51:19;;;;;;;;;;;;;;;29.42;44.17;98617.56;5014857;28;1886;-63
2022/08/14 12:53:46;;;;;;;;;;;;;;;29.13;44.95;98625.41;5032631;28;922;-64
2022/08/14 12:56:17;;;;;;;;;;;;;;;29.02;45.63;98620.78;5032465;28;899;-64
2022/08/14 12:58:49;;;;;;;;;;;;;;;28.94;45.79;98628.50;5032750;28;816;-64
2022/08/14 13:01:21;;;;;;;;;;;;;;;28.93;46.20;98618.44;5032303;28;1206;-64
2022/08/14 13:03:48;;;;;;;;;;;;;;;28.86;46.36;98622.00;5032327;28;899;-64
2022/08/14 13:06:16;;;;;;;;;;;;;;;28.79;46.16;98620.63;5032634;28;885;-63
2022/08/14 13:08:43;;;;;;;;;;;;;;;28.75;46.05;98625.16;5014543;28;1180;-63
2022/08/14 13:11:13;;;;;;;;;;;;;;;28.79;47.15;98628.41;5032187;28;1902;-64
2022/08/14 13:13:55;;;;;;;;;;;;;;;28.74;48.43;98623.63;5014458;28;1489;-64
2022/08/14 13:16:21;;;;;;;;;;;;;;;28.64;48.92;98620.53;5032074;28;972;-64
2022/08/14 13:18:49;;;;;;;;;;;;;;;28.67;49.16;98625.09;5014295;28;1252;-64
2022/08/14 13:21:17;;;;;;;;;;;;;;;28.64;49.05;98618.44;5032219;28;934;-63
2022/08/14 13:23:44;;;;;;;;;;;;;;;28.67;48.68;98625.84;5032020;28;1057;-63
2022/08/14 13:26:15;;;;;;;;;;;;;;;28.65;49.28;98611.41;5031937;28;1150;-64
2022/08/14 13:28:42;;;;;;;;;;;;;;;28.68;48.93;98613.16;5031342;28;890;-64
2022/08/14 13:31:13;;;;;;;;;;;;;;;28.79;49.41;98606.41;5031896;28;1906;-63
2022/08/14 13:33:41;;;;;;;;;;;;;;;28.82;49.31;98599.59;5031804;28;955;-63
2022/08/14 13:36:09;;;;;;;;;;;;;;;28.73;49.68;98607.88;5031850;28;931;-63
2022/08/14 13:38:36;;;;;;;;;;;;;;;28.61;50.21;98613.09;5031814;28;879;-63
2022/08/14 13:41:04;;;;;;;;;;;;;;;28.50;51.20;98620.59;5031622;28;942;-63
2022/08/14 13:43:32;;;;;;;;;;;;;;;28.23;52.77;98622.81;5032510;28;917;-62
2022/08/14 13:45:58;;;;;;;;;;;;;;;27.99;53.62;98620.28;5031967;28;828;-63
2022/08/14 13:48:40;;;;;;;;;;;;;;;27.73;53.49;98632.47;5032145;28;822;-63
2022/08/14 13:51:14;;;;;;;;;;;;;;;27.21;54.30;98634.84;5031499;28;1878;-62
2022/08/14 13:53:45;;;;;;;;;;;;;;;26.81;55.92;98632.75;5031826;28;1268;-62
2022/08/14 13:56:12;;;;;;;;;;;;;;;26.48;57.42;98632.03;5031660;28;867;-62
2022/08/14 13:59:07;;;;;;;;;;;;;;;26.28;58.15;98647.53;5031432;28;875;-62
2022/08/14 14:01:34;;;;;;;;;;;;;;;26.27;58.21;98634.69;5030991;28;1195;-61
2022/08/14 14:04:12;;;;;;;;;;;;;;;26.22;58.79;98629.88;5031419;28;1102;-63
2022/08/14 14:06:39;;;;;;;;;;;;;;;26.14;59.06;98643.13;5031727;28;966;-62
2022/08/14 14:09:09;;;;;;;;;;;;;;;26.18;59.00;98656.97;5014025;28;890;-62
2022/08/14 14:11:53;;;;;;;;;;;;;;;26.05;59.90;98652.78;5031239;28;1898;-62
2022/08/14 14:17:24;;;;;;;;;;;;;;;25.67;62.05;98640.72;5031417;28;643;-62
2022/08/14 14:19:54;;;;;;;;;;;;;;;25.50;63.38;98643.75;5031521;28;860;-62
2022/08/14 14:25:33;;;;;;;;;;;;;;;25.12;65.11;98662.69;5010761;28;1061;-62
2022/08/14 14:31:04;;;;;;;;;;;;;;;25.12;65.46;98659.88;5031222;28;1973;-62
2022/08/14 14:33:33;;;;;;;;;;;;;;;25.11;65.45;98664.75;5031486;28;795;-62
2022/08/14 14:39:04;;;;;;;;;;;;;;;25.21;65.19;98657.47;5031515;28;689;-61
2022/08/14 14:41:31;;;;;;;;;;;;;;;25.21;65.38;98662.34;5035095;28;855;-61
2022/08/14 14:44:00;;;;;;;;;;;;;;;25.15;65.41;98662.38;5034985;28;970;-61
2022/08/14 14:46:34;;;;;;;;;;;;;;;24.96;65.53;98665.16;5035038;28;824;-61
2022/08/14 15:01:22;;;;;;;;;;;;;;;23.79;69.16;98673.25;5027549;28;1277;-62
2022/08/14 15:03:54;;;;;;;;;;;;;;;23.56;70.49;98662.06;4995270;28;935;-62
2022/08/14 15:18:31;;;;;;;;;;;;;;;20.53;90.24;98745.19;4995357;28;631;-63
2022/08/14 15:21:03;;;;;;;;;;;;;;;20.10;91.82;98761.06;4995011;28;841;-61
2022/08/14 15:23:30;;;;;;;;;;;;;;;19.78;93.79;98764.56;4994973;28;833;-66
2022/08/14 15:29:07;;;;;;;;;;;;;;;19.56;99.22;98807.03;4994796;28;1269;-69
2022/08/14 15:43:46;;;;;;;;;;;;;;;18.90;100.00;98853.13;4994916;28;710;-65
2022/08/14 15:46:18;;;;;;;;;;;;;;;18.87;100.00;98840.09;4994395;28;1240;-63
2022/08/14 15:48:46;;;;;;;;;;;;;;;18.80;100.00;98826.50;4993141;28;1180;-65
2022/08/14 15:51:13;;;;;;;;;;;;;;;18.71;100.00;98801.34;4993892;28;1957;-64
2022/08/14 15:53:40;;;;;;;;;;;;;;;18.69;100.00;98771.06;4994299;28;852;-65
2022/08/14 15:56:07;;;;;;;;;;;;;;;18.70;100.00;98755.03;4994366;28;872;-66
2022/08/14 15:58:35;;;;;;;;;;;;;;;18.72;100.00;98732.94;4994289;28;899;-65
2022/08/14 16:03:52;;;;;;;;;;;;;;;18.65;100.00;98706.13;5033535;28;1351;-71
2022/08/14 16:06:29;;;;;;;;;;;;;;;18.63;100.00;98700.25;5033527;28;828;-70
2022/08/14 16:08:57;;;;;;;;;;;;;;;18.67;100.00;98694.44;5033323;28;932;-68